Terminal Aerodrome Forecast
Issued by NWS Cleveland, OH

Home | Current Version | Previous Version | Text Only | Print | Product List | Glossary On
Versions: 1 2 3 4 5 6 7 8 9 10 11 12 13 14 15 16 17 18 19 20 21 22 23 24 25
000
FTUS41 KCLE 252000 AAB
TAFYNG
TAF AMD
KYNG 252046Z 2521/2618 03008KT 3SM -SN BR OVC025
      TEMPO 2521/2523 1 1/2SM -SN BR OVC012
     FM252300 06008KT 1/2SM SN FZFG OVC003
     FM260900 04012KT 1 1/2SM -SN BR OVC007
     FM261700 02009KT P6SM OVC015=

USA.gov is the U.S. government's official web portal to all federal, state and local government web resources and services.